Time;durP1;ratioP1;P1;durP2;ratioP2;P2;SDS_P1;SDS_P2;PMS_P1;PMS_P2;Temp;Humidity;BMP_temperature;BMP_pressure;BME280_temperature;BME280_humidity;BME280_pressure;Samples;Min_cycle;Max_cycle;Signal;HPM_P1;HPM_P2
2022/01/06 00:01:18;;;;;;;13.43;13.03;;;20.90;57.10;;;;;;5072204;28;20467;-47
2022/01/06 00:03:45;;;;;;;13.77;13.27;;;20.90;57.20;;;;;;5071893;28;20447;-47
2022/01/06 00:06:11;;;;;;;13.67;13.17;;;20.80;57.40;;;;;;5071598;28;20474;-48
2022/01/06 00:08:39;;;;;;;14.10;13.70;;;20.70;57.50;;;;;;5072022;28;20505;-47
2022/01/06 00:11:08;;;;;;;14.60;13.53;;;20.70;58.00;;;;;;5071810;28;20510;-47
2022/01/06 00:13:47;;;;;;;13.80;13.40;;;20.60;58.00;;;;;;5071929;28;20446;-48
2022/01/06 00:16:25;;;;;;;14.87;13.97;;;20.50;58.20;;;;;;5071712;28;20443;-50
2022/01/06 00:24:23;;;;;;;13.97;13.57;;;20.10;59.60;;;;;;5071893;28;20422;-48
2022/01/06 00:26:51;;;;;;;13.60;13.10;;;20.00;60.00;;;;;;5071495;28;20473;-47
2022/01/06 00:29:19;;;;;;;12.93;12.63;;;20.00;60.50;;;;;;5071776;28;20459;-47
2022/01/06 00:31:46;;;;;;;13.57;13.17;;;19.90;61.00;;;;;;5071017;28;20549;-47
2022/01/06 00:34:13;;;;;;;12.77;12.30;;;19.80;61.40;;;;;;5071670;28;20818;-47
2022/01/06 00:36:41;;;;;;;13.33;12.93;;;19.80;61.60;;;;;;5071309;28;20451;-48
2022/01/06 00:39:09;;;;;;;14.00;13.60;;;19.70;61.50;;;;;;5071497;28;20474;-47
2022/01/06 00:41:37;;;;;;;13.17;12.73;;;19.60;62.50;;;;;;5071325;28;20471;-47
2022/01/06 00:44:05;;;;;;;13.37;12.87;;;19.60;62.50;;;;;;5071468;28;20451;-47
2022/01/06 00:46:33;;;;;;;13.43;13.03;;;19.50;63.00;;;;;;5071397;28;20531;-50
2022/01/06 00:49:00;;;;;;;13.10;12.70;;;19.50;63.50;;;;;;5071491;28;20476;-48
2022/01/06 00:51:27;;;;;;;14.97;14.07;;;19.40;63.90;;;;;;5071314;28;20459;-47
2022/01/06 00:53:53;;;;;;;13.50;13.03;;;19.40;64.40;;;;;;5071171;28;20455;-47
2022/01/06 00:56:20;;;;;;;13.47;12.87;;;19.40;65.30;;;;;;5071348;28;20447;-46
2022/01/06 00:58:48;;;;;;;13.10;12.70;;;19.30;65.70;;;;;;5071399;28;20953;-46
2022/01/06 01:01:14;;;;;;;13.00;12.60;;;19.20;66.40;;;;;;5071222;28;20499;-46
2022/01/06 01:03:42;;;;;;;13.30;12.90;;;19.10;67.40;;;;;;5070935;28;20955;-47
2022/01/06 01:06:09;;;;;;;13.40;13.00;;;19.10;67.90;;;;;;5071455;28;20925;-47
2022/01/06 01:08:38;;;;;;;13.40;13.00;;;19.00;68.40;;;;;;5071435;28;20706;-46
2022/01/06 01:11:05;;;;;;;13.70;13.30;;;18.90;69.30;;;;;;5071062;28;20569;-48
2022/01/06 01:13:36;;;;;;;13.10;12.70;;;18.90;70.00;;;;;;5070850;28;20446;-47
2022/01/06 01:16:19;;;;;;;12.90;12.40;;;18.80;70.80;;;;;;5071194;28;20444;-49
2022/01/06 01:18:48;;;;;;;13.10;12.70;;;18.70;71.20;;;;;;5071251;28;20539;-46
2022/01/06 01:21:15;;;;;;;13.27;12.87;;;18.70;72.20;;;;;;5071154;28;20999;-46
2022/01/06 01:23:42;;;;;;;12.53;12.20;;;18.70;73.00;;;;;;5070679;28;20462;-49
2022/01/06 01:26:09;;;;;;;13.10;12.60;;;18.60;72.50;;;;;;5071185;28;20451;-46
2022/01/06 01:28:43;;;;;;;12.97;12.47;;;18.60;73.50;;;;;;5071228;28;20450;-47
2022/01/06 01:31:23;;;;;;;12.73;12.43;;;18.60;73.40;;;;;;5071195;28;20481;-47
2022/01/06 01:33:52;;;;;;;12.67;12.30;;;18.50;74.00;;;;;;5070573;28;20948;-48
2022/01/06 01:36:20;;;;;;;12.20;11.80;;;18.50;75.20;;;;;;5071113;28;20879;-49
2022/01/06 01:38:46;;;;;;;12.97;12.67;;;18.50;75.90;;;;;;5071080;28;20521;-50
2022/01/06 01:41:13;;;;;;;12.47;12.07;;;18.50;76.30;;;;;;5070952;28;20471;-47
2022/01/06 01:43:41;;;;;;;13.20;12.70;;;18.50;76.80;;;;;;5072473;28;21798;-48
2022/01/06 01:46:11;;;;;;;13.03;12.63;;;18.50;76.70;;;;;;5074583;28;20443;-49
2022/01/06 01:48:42;;;;;;;13.10;12.70;;;18.50;77.60;;;;;;5074817;28;20497;-47
2022/01/06 01:51:10;;;;;;;13.57;13.17;;;18.40;78.20;;;;;;5074469;28;20494;-49
2022/01/06 01:53:38;;;;;;;13.03;12.60;;;18.40;78.90;;;;;;5074159;28;20447;-47
2022/01/06 01:56:06;;;;;;;13.13;12.73;;;18.40;79.40;;;;;;5074469;28;20839;-49
2022/01/06 01:58:33;;;;;;;12.67;12.37;;;18.40;79.90;;;;;;5073928;28;20517;-47
2022/01/06 02:01:00;;;;;;;13.33;12.73;;;18.40;80.40;;;;;;5074326;28;20471;-50
2022/01/06 02:03:27;;;;;;;13.00;12.60;;;18.40;80.90;;;;;;5074129;28;20469;-51
2022/01/06 02:05:54;;;;;;;13.30;12.77;;;18.30;81.20;;;;;;5074331;28;20451;-47
2022/01/06 02:08:22;;;;;;;13.97;13.30;;;18.30;82.00;;;;;;5074002;28;20498;-49
2022/01/06 02:10:48;;;;;;;12.77;12.40;;;18.30;82.50;;;;;;5074005;28;20447;-47
2022/01/06 02:13:15;;;;;;;13.37;12.87;;;18.20;83.00;;;;;;5074806;28;20864;-52
2022/01/06 02:15:42;;;;;;;12.70;12.30;;;18.10;83.20;;;;;;5074193;28;20952;-48
2022/01/06 02:18:09;;;;;;;12.80;12.50;;;18.10;84.40;;;;;;5074201;28;20479;-47
2022/01/06 02:20:37;;;;;;;13.30;12.80;;;18.10;85.40;;;;;;5073857;28;20959;-48
2022/01/06 02:23:04;;;;;;;13.20;12.70;;;18.10;85.70;;;;;;5073767;28;20463;-47
2022/01/06 02:25:32;;;;;;;13.30;12.87;;;18.10;86.40;;;;;;5073940;28;20451;-49
2022/01/06 02:28:02;;;;;;;13.60;13.07;;;18.00;87.20;;;;;;5074044;28;20471;-52
2022/01/06 02:30:31;;;;;;;12.20;11.83;;;17.90;88.20;;;;;;5072710;28;20459;-53
2022/01/06 02:33:00;;;;;;;12.63;12.13;;;17.90;89.00;;;;;;5073732;28;20467;-47
2022/01/06 02:35:27;;;;;;;11.23;10.87;;;17.90;89.20;;;;;;5073834;28;20874;-47
2022/01/06 02:37:55;;;;;;;11.70;11.20;;;17.90;90.00;;;;;;5073689;28;20983;-49
2022/01/06 02:40:24;;;;;;;11.40;11.10;;;17.80;90.50;;;;;;5073480;28;20482;-51
2022/01/06 02:42:53;;;;;;;12.07;11.67;;;17.80;90.80;;;;;;5073443;28;20521;-46
2022/01/06 02:45:20;;;;;;;12.10;11.70;;;17.80;90.90;;;;;;5073624;28;20546;-51
2022/01/06 02:47:48;;;;;;;11.67;11.37;;;17.80;91.00;;;;;;5073583;28;20448;-49
2022/01/06 02:50:17;;;;;;;11.70;11.40;;;17.80;91.30;;;;;;5073322;28;20547;-49
2022/01/06 02:52:43;;;;;;;11.00;10.70;;;17.70;91.80;;;;;;5073188;28;20968;-50
2022/01/06 02:55:14;;;;;;;11.60;11.30;;;17.70;91.90;;;;;;5073096;28;20814;-50
2022/01/06 02:57:41;;;;;;;12.00;11.53;;;17.60;92.30;;;;;;5073333;28;20928;-48
2022/01/06 03:00:10;;;;;;;12.00;11.60;;;17.60;92.40;;;;;;5072990;28;20447;-49
2022/01/06 03:02:36;;;;;;;11.70;11.30;;;17.60;92.60;;;;;;5072755;28;20872;-50
2022/01/06 03:05:04;;;;;;;11.83;11.53;;;17.60;92.80;;;;;;5073154;28;20455;-49
2022/01/06 03:07:31;;;;;;;11.80;11.50;;;17.60;92.90;;;;;;5073213;28;20446;-50
2022/01/06 03:09:59;;;;;;;11.60;11.30;;;17.60;93.40;;;;;;5072960;28;20451;-48
2022/01/06 03:12:33;;;;;;;12.37;12.00;;;17.60;93.40;;;;;;5072635;28;20489;-52
2022/01/06 03:15:00;;;;;;;12.73;12.33;;;17.50;93.70;;;;;;5073029;28;20760;-48
2022/01/06 03:17:26;;;;;;;12.30;11.97;;;17.50;94.00;;;;;;5073125;28;20454;-51
2022/01/06 03:19:53;;;;;;;13.10;12.70;;;17.50;94.30;;;;;;5072540;28;20479;-50
2022/01/06 03:22:20;;;;;;;12.60;12.30;;;17.50;94.10;;;;;;5072610;28;20475;-53
2022/01/06 03:24:46;;;;;;;13.33;12.93;;;17.40;94.60;;;;;;5072887;28;20447;-51
2022/01/06 03:27:13;;;;;;;13.03;12.53;;;17.50;94.70;;;;;;5072735;28;20446;-48
2022/01/06 03:29:41;;;;;;;12.50;12.20;;;17.50;94.90;;;;;;5072491;28;20443;-48
2022/01/06 03:32:08;;;;;;;12.40;12.10;;;17.50;94.80;;;;;;5072376;28;20466;-48
2022/01/06 03:34:36;;;;;;;13.27;12.57;;;17.50;94.90;;;;;;5072685;28;20850;-52
2022/01/06 03:37:05;;;;;;;12.37;12.07;;;17.40;95.00;;;;;;5072521;28;20481;-50
2022/01/06 03:39:33;;;;;;;12.90;12.50;;;17.40;95.50;;;;;;5072131;28;20479;-49
2022/01/06 03:42:00;;;;;;;12.90;12.50;;;17.40;95.50;;;;;;5072284;28;20474;-51
2022/01/06 03:44:27;;;;;;;12.90;12.57;;;17.40;95.60;;;;;;5072428;28;20451;-51
2022/01/06 03:46:55;;;;;;;12.60;12.27;;;17.40;96.00;;;;;;5072389;28;20446;-48
2022/01/06 03:49:22;;;;;;;12.43;12.03;;;17.40;95.90;;;;;;5072039;28;20451;-48
2022/01/06 03:51:49;;;;;;;12.43;12.03;;;17.40;96.20;;;;;;5072066;28;20490;-49
2022/01/06 03:54:16;;;;;;;12.77;12.37;;;17.40;96.30;;;;;;5072147;28;20446;-48
2022/01/06 03:56:43;;;;;;;11.90;11.60;;;17.40;96.30;;;;;;5071922;28;20450;-50
2022/01/06 03:59:09;;;;;;;12.60;12.30;;;17.40;96.20;;;;;;5072082;28;20475;-48
2022/01/06 04:01:37;;;;;;;12.87;12.47;;;17.40;96.40;;;;;;5071840;28;20964;-48
2022/01/06 04:04:05;;;;;;;12.90;12.50;;;17.40;96.30;;;;;;5072023;28;20809;-48
2022/01/06 04:06:31;;;;;;;12.80;12.40;;;17.40;96.50;;;;;;5071404;28;20526;-51
2022/01/06 04:08:58;;;;;;;12.37;11.97;;;17.40;96.40;;;;;;5071826;28;20484;-48
2022/01/06 04:11:25;;;;;;;13.00;12.60;;;17.40;96.80;;;;;;5071769;28;20471;-50
2022/01/06 04:13:52;;;;;;;13.87;13.37;;;17.40;97.20;;;;;;5071716;28;20451;-48
2022/01/06 04:16:18;;;;;;;13.30;12.87;;;17.40;97.60;;;;;;5071453;28;20451;-51
2022/01/06 04:18:45;;;;;;;12.60;12.30;;;17.40;98.00;;;;;;5071800;28;20487;-48
2022/01/06 04:21:14;;;;;;;12.77;12.37;;;17.40;98.20;;;;;;5071726;28;20467;-51
2022/01/06 04:23:40;;;;;;;13.27;12.80;;;17.30;98.30;;;;;;5071645;28;20443;-48
2022/01/06 04:26:07;;;;;;;12.00;11.60;;;17.40;98.60;;;;;;5071557;28;20471;-48
2022/01/06 04:28:34;;;;;;;13.30;12.80;;;17.40;98.70;;;;;;5071693;28;20440;-50
2022/01/06 04:31:00;;;;;;;12.77;12.40;;;17.40;98.90;;;;;;5071681;28;20520;-50
2022/01/06 04:33:27;;;;;;;13.20;12.80;;;17.40;98.80;;;;;;5071384;28;20450;-49
2022/01/06 04:35:54;;;;;;;13.53;12.93;;;17.40;98.90;;;;;;5071353;28;20455;-47
2022/01/06 04:38:22;;;;;;;12.90;12.50;;;17.40;99.00;;;;;;5071624;28;20928;-51
2022/01/06 04:40:49;;;;;;;12.90;12.60;;;17.40;99.10;;;;;;5071637;28;20976;-50
2022/01/06 04:43:16;;;;;;;13.13;12.63;;;17.30;98.90;;;;;;5071409;28;20509;-51
2022/01/06 04:45:43;;;;;;;12.57;12.27;;;17.30;99.20;;;;;;5071115;28;20447;-53
2022/01/06 04:48:09;;;;;;;13.43;12.97;;;17.30;99.40;;;;;;5071144;28;20452;-51
2022/01/06 04:50:36;;;;;;;13.20;12.80;;;17.30;99.30;;;;;;5071533;28;20497;-50
2022/01/06 04:53:03;;;;;;;13.40;13.00;;;17.30;99.20;;;;;;5071284;28;20466;-51
2022/01/06 04:55:31;;;;;;;13.37;12.97;;;17.40;99.30;;;;;;5071074;28;20451;-48
2022/01/06 04:57:58;;;;;;;14.43;13.73;;;17.30;99.10;;;;;;5071492;28;20447;-50
2022/01/06 05:00:25;;;;;;;14.23;13.70;;;17.30;99.00;;;;;;5071321;28;20510;-49
2022/01/06 05:02:51;;;;;;;13.63;13.10;;;17.30;99.10;;;;;;5071015;28;20517;-48
2022/01/06 05:05:18;;;;;;;13.57;13.17;;;17.30;99.20;;;;;;5071179;28;20473;-48
2022/01/06 05:07:45;;;;;;;13.93;13.43;;;17.30;99.00;;;;;;5071407;28;20501;-47
2022/01/06 05:10:12;;;;;;;16.97;15.30;;;17.30;99.90;;;;;;5071320;28;20475;-48
2022/01/06 05:12:41;;;;;;;15.10;14.00;;;17.40;99.90;;;;;;5070766;28;20471;-47
2022/01/06 05:15:09;;;;;;;15.83;14.33;;;17.60;99.90;;;;;;5071024;28;20947;-48
2022/01/06 05:17:36;;;;;;;17.83;13.50;;;17.60;99.90;;;;;;5072997;28;20443;-49
2022/01/06 05:20:03;;;;;;;19.03;13.33;;;17.70;99.90;;;;;;5075251;28;20880;-52
2022/01/06 05:22:30;;;;;;;14.20;11.77;;;17.80;99.90;;;;;;5074882;28;20485;-49
2022/01/06 05:24:57;;;;;;;12.80;10.13;;;17.80;99.90;;;;;;5075097;28;20534;-50
2022/01/06 05:27:25;;;;;;;26.07;12.10;;;17.90;99.90;;;;;;5074723;28;20458;-49
2022/01/06 05:29:53;;;;;;;17.90;10.30;;;18.00;99.90;;;;;;5075000;28;20439;-49
2022/01/06 05:32:20;;;;;;;25.03;12.77;;;18.10;99.90;;;;;;5074696;28;20467;-48
2022/01/06 05:34:46;;;;;;;22.57;13.33;;;18.00;99.90;;;;;;5075077;28;20450;-50
2022/01/06 05:37:13;;;;;;;21.30;15.40;;;17.90;99.90;;;;;;5074401;28;20446;-48
2022/01/06 05:39:40;;;;;;;18.97;17.37;;;17.80;99.90;;;;;;5074803;28;20490;-47
2022/01/06 05:42:07;;;;;;;17.87;16.50;;;17.60;99.90;;;;;;5072947;28;20844;-50
2022/01/06 05:44:34;;;;;;;18.60;17.30;;;17.60;99.90;;;;;;5074632;28;20443;-48
2022/01/06 05:47:03;;;;;;;18.37;17.00;;;17.40;99.90;;;;;;5074843;28;20451;-50
2022/01/06 05:49:29;;;;;;;18.70;17.20;;;17.40;99.90;;;;;;5074879;28;20431;-48
2022/01/06 05:51:56;;;;;;;18.17;17.00;;;17.40;99.90;;;;;;5074302;28;20463;-51
2022/01/06 05:54:22;;;;;;;22.03;20.03;;;17.90;99.90;;;;;;5074298;28;20469;-48
2022/01/06 05:56:49;;;;;;;22.40;20.50;;;18.40;99.90;;;;;;5074591;28;20470;-52
2022/01/06 05:59:16;;;;;;;22.07;20.37;;;18.90;99.90;;;;;;5074526;28;20845;-49
2022/01/06 06:01:43;;;;;;;21.90;20.43;;;19.30;99.90;;;;;;5074301;28;20466;-48
2022/01/06 06:04:11;;;;;;;22.63;20.43;;;19.50;99.90;;;;;;5074256;28;20450;-48
2022/01/06 06:06:38;;;;;;;20.27;19.20;;;19.50;99.90;;;;;;5074367;28;20816;-51
2022/01/06 06:09:06;;;;;;;21.30;20.00;;;19.60;99.90;;;;;;5074182;28;20454;-52
2022/01/06 06:11:32;;;;;;;20.03;18.90;;;19.70;99.90;;;;;;5073847;28;20483;-47
2022/01/06 06:13:59;;;;;;;20.10;18.93;;;19.80;99.90;;;;;;5074264;28;20488;-52
2022/01/06 06:16:26;;;;;;;20.20;19.10;;;19.80;99.90;;;;;;5074166;28;20458;-51
2022/01/06 06:18:53;;;;;;;19.30;17.97;;;19.90;99.90;;;;;;5074134;28;20466;-48
2022/01/06 06:21:21;;;;;;;19.13;18.03;;;20.10;99.90;;;;;;5074037;28;20478;-53
2022/01/06 06:23:49;;;;;;;21.73;19.47;;;19.90;99.90;;;;;;5073646;28;20505;-47
2022/01/06 06:26:16;;;;;;;20.93;19.53;;;20.00;99.90;;;;;;5074080;28;20447;-48
2022/01/06 06:28:43;;;;;;;19.47;18.27;;;20.10;99.90;;;;;;5073141;28;20447;-49
2022/01/06 06:31:10;;;;;;;19.40;18.07;;;20.10;99.90;;;;;;5073815;28;20467;-49
2022/01/06 06:33:36;;;;;;;19.23;18.17;;;20.10;99.90;;;;;;5073649;28;20466;-54
2022/01/06 06:36:03;;;;;;;20.00;18.63;;;20.10;99.90;;;;;;5073867;28;20440;-50
2022/01/06 06:38:31;;;;;;;18.37;17.33;;;20.10;99.90;;;;;;5073603;28;20455;-51
2022/01/06 06:40:58;;;;;;;19.03;18.10;;;20.10;99.90;;;;;;5073553;28;20479;-48
2022/01/06 06:43:25;;;;;;;19.80;18.40;;;20.10;99.90;;;;;;5073368;28;20447;-48
2022/01/06 06:45:51;;;;;;;19.10;18.00;;;20.10;99.90;;;;;;5073604;28;20451;-49
2022/01/06 06:48:18;;;;;;;17.87;17.07;;;20.10;99.90;;;;;;5073595;28;20435;-52
2022/01/06 06:50:45;;;;;;;18.13;17.10;;;20.10;99.90;;;;;;5073418;28;20448;-54
2022/01/06 06:53:11;;;;;;;17.60;16.80;;;20.00;99.90;;;;;;5073258;28;20448;-48
2022/01/06 06:55:40;;;;;;;18.50;17.47;;;20.10;99.90;;;;;;5073503;28;20939;-50
2022/01/06 06:58:06;;;;;;;18.83;17.67;;;20.10;99.50;;;;;;5073540;28;20500;-52
2022/01/06 07:00:33;;;;;;;18.43;17.40;;;20.10;99.10;;;;;;5073300;28;20479;-49
2022/01/06 07:03:00;;;;;;;18.23;17.33;;;20.10;98.60;;;;;;5072979;28;20471;-48
2022/01/06 07:05:27;;;;;;;17.27;16.30;;;20.00;98.30;;;;;;5073155;28;20443;-48
2022/01/06 07:07:54;;;;;;;17.93;16.93;;;20.00;98.10;;;;;;5073132;28;20565;-49
2022/01/06 07:10:21;;;;;;;18.93;18.00;;;20.00;97.80;;;;;;5073228;28;20448;-51
2022/01/06 07:12:49;;;;;;;17.67;16.83;;;20.00;97.60;;;;;;5072694;28;20479;-49
2022/01/06 07:15:17;;;;;;;16.67;15.90;;;19.90;97.20;;;;;;5073022;28;20451;-49
2022/01/06 07:17:44;;;;;;;16.60;15.90;;;19.80;97.30;;;;;;5073063;28;20454;-51
2022/01/06 07:20:12;;;;;;;14.87;14.33;;;19.80;97.00;;;;;;5072972;28;20483;-48
2022/01/06 07:22:39;;;;;;;15.67;15.07;;;19.80;96.80;;;;;;5072610;28;20476;-50
2022/01/06 07:25:07;;;;;;;15.40;14.73;;;19.80;96.60;;;;;;5072868;28;20443;-49
2022/01/06 07:27:34;;;;;;;14.87;14.33;;;19.80;96.40;;;;;;5072645;28;20442;-48
2022/01/06 07:30:03;;;;;;;15.57;14.77;;;19.70;96.20;;;;;;5072656;28;20439;-48
2022/01/06 07:32:29;;;;;;;15.03;14.23;;;19.70;96.00;;;;;;5072308;28;20464;-48
2022/01/06 07:34:56;;;;;;;15.30;14.50;;;19.60;95.90;;;;;;5072562;28;20850;-52
2022/01/06 07:37:23;;;;;;;14.83;14.17;;;19.60;95.80;;;;;;5072481;28;20932;-51
2022/01/06 07:39:49;;;;;;;15.27;14.63;;;19.50;95.70;;;;;;5072046;28;20487;-49
2022/01/06 07:42:16;;;;;;;14.03;13.53;;;19.50;95.40;;;;;;5071778;28;20464;-51
2022/01/06 07:44:46;;;;;;;14.27;13.77;;;19.40;95.50;;;;;;5072379;28;20862;-50
2022/01/06 07:47:14;;;;;;;15.63;14.70;;;19.40;95.40;;;;;;5072333;28;20447;-50
2022/01/06 07:49:41;;;;;;;15.10;14.10;;;19.40;95.40;;;;;;5072332;28;20440;-47
2022/01/06 07:52:09;;;;;;;15.17;14.47;;;19.30;95.30;;;;;;5072058;28;20508;-50
2022/01/06 07:54:35;;;;;;;15.13;14.50;;;19.30;95.30;;;;;;5072269;28;20439;-48
2022/01/06 07:57:02;;;;;;;14.40;13.90;;;19.20;95.20;;;;;;5072172;28;21069;-52
2022/01/06 07:59:29;;;;;;;15.50;14.63;;;19.10;95.70;;;;;;5072072;28;20845;-49
2022/01/06 08:01:56;;;;;;;14.43;13.93;;;18.90;95.60;;;;;;5072273;28;20470;-47
2022/01/06 08:04:24;;;;;;;15.17;14.50;;;18.80;95.80;;;;;;5072282;28;20447;-48
2022/01/06 08:06:50;;;;;;;15.20;14.50;;;18.80;96.00;;;;;;5071988;28;20451;-52
2022/01/06 08:09:17;;;;;;;15.13;14.37;;;18.70;96.10;;;;;;5071965;28;20440;-49
2022/01/06 08:11:43;;;;;;;15.80;14.90;;;18.70;96.20;;;;;;5093872;22;20491;-47
2022/01/06 08:14:10;;;;;;;15.30;14.80;;;18.60;96.20;;;;;;5071856;28;20846;-45
2022/01/06 08:16:37;;;;;;;15.70;14.93;;;18.50;96.20;;;;;;5071951;28;20442;-48
2022/01/06 08:19:04;;;;;;;15.30;14.80;;;18.50;96.30;;;;;;5072074;28;20455;-47
2022/01/06 08:21:32;;;;;;;15.70;15.00;;;18.40;96.30;;;;;;5067905;28;20488;-45
2022/01/06 08:23:58;;;;;;;14.70;14.20;;;18.40;96.50;;;;;;5051804;28;20448;-43
2022/01/06 08:26:25;;;;;;;15.80;15.20;;;18.30;96.70;;;;;;5052005;28;20440;-48
2022/01/06 08:28:52;;;;;;;15.30;14.60;;;18.20;96.90;;;;;;5051739;28;20770;-44
2022/01/06 08:31:18;;;;;;;14.90;14.30;;;18.20;97.00;;;;;;5051715;28;20440;-50
2022/01/06 08:33:46;;;;;;;15.67;15.00;;;18.10;97.30;;;;;;5051545;28;20929;-45
2022/01/06 08:36:14;;;;;;;14.70;14.20;;;18.00;97.40;;;;;;5051763;28;20460;-46
2022/01/06 08:38:42;;;;;;;16.13;15.57;;;17.90;97.60;;;;;;5051767;28;20830;-48
2022/01/06 08:41:09;;;;;;;16.63;15.90;;;17.90;97.70;;;;;;5051313;28;20484;-44
2022/01/06 08:43:36;;;;;;;14.93;14.43;;;17.80;97.80;;;;;;5051531;28;20972;-48
2022/01/06 08:46:03;;;;;;;15.10;14.50;;;17.80;97.80;;;;;;5051475;28;20456;-48
2022/01/06 08:48:31;;;;;;;15.60;14.77;;;17.80;97.70;;;;;;5051513;28;20929;-44
2022/01/06 08:50:58;;;;;;;15.23;14.63;;;17.80;97.90;;;;;;5051481;28;20436;-44
2022/01/06 08:53:26;;;;;;;14.63;14.03;;;17.80;98.00;;;;;;5050794;28;20982;-44
2022/01/06 08:55:54;;;;;;;14.17;13.70;;;17.80;97.70;;;;;;5051446;28;20455;-47
2022/01/06 08:58:21;;;;;;;14.30;13.80;;;17.70;97.90;;;;;;5051395;28;20448;-47
2022/01/06 09:00:48;;;;;;;14.57;13.83;;;17.70;97.80;;;;;;5051286;28;20555;-44
2022/01/06 09:03:15;;;;;;;14.00;13.60;;;17.70;97.60;;;;;;5051329;28;20880;-45
2022/01/06 09:05:41;;;;;;;15.40;14.63;;;17.80;97.40;;;;;;5051414;28;20849;-44
2022/01/06 09:08:09;;;;;;;14.73;14.17;;;17.80;97.10;;;;;;5051645;28;20451;-46
2022/01/06 09:10:36;;;;;;;14.37;13.80;;;17.70;97.00;;;;;;5051386;28;20444;-44
2022/01/06 09:13:05;;;;;;;14.57;14.07;;;17.70;97.10;;;;;;5051133;28;20502;-47
2022/01/06 09:15:32;;;;;;;15.20;14.70;;;17.70;97.10;;;;;;5051322;28;20451;-49
2022/01/06 09:17:59;;;;;;;14.50;14.10;;;17.60;97.10;;;;;;5051344;28;20798;-44
2022/01/06 09:20:25;;;;;;;14.70;14.20;;;17.70;96.90;;;;;;5051099;28;20476;-48
2022/01/06 09:22:52;;;;;;;14.50;14.00;;;17.70;96.80;;;;;;5051003;28;20472;-45
2022/01/06 09:25:19;;;;;;;15.67;15.17;;;17.60;96.90;;;;;;5051358;28;20448;-49
2022/01/06 09:27:45;;;;;;;14.37;13.87;;;17.60;97.00;;;;;;5051104;28;20454;-43
2022/01/06 09:30:14;;;;;;;13.70;13.20;;;17.60;97.10;;;;;;5051159;28;20455;-45
2022/01/06 09:32:41;;;;;;;12.80;12.40;;;17.60;97.20;;;;;;5051041;28;20460;-44
2022/01/06 09:35:08;;;;;;;13.70;13.13;;;17.60;97.10;;;;;;5051197;28;20800;-44
2022/01/06 09:37:35;;;;;;;14.33;13.60;;;17.60;97.10;;;;;;5051215;28;20444;-44
2022/01/06 09:40:04;;;;;;;12.60;12.13;;;17.60;97.00;;;;;;5050988;28;20810;-45
2022/01/06 09:42:30;;;;;;;14.50;14.00;;;17.50;96.90;;;;;;5051239;28;20559;-49
2022/01/06 09:44:59;;;;;;;14.00;13.50;;;17.60;97.00;;;;;;5050985;28;20439;-44
2022/01/06 09:47:29;;;;;;;14.20;13.70;;;17.60;96.80;;;;;;5051076;28;20444;-46
2022/01/06 09:49:57;;;;;;;14.30;13.77;;;17.60;96.80;;;;;;5050892;28;20467;-48
2022/01/06 09:52:24;;;;;;;14.27;13.77;;;17.70;96.70;;;;;;5050714;28;20472;-44
2022/01/06 09:54:51;;;;;;;13.97;13.57;;;17.80;96.20;;;;;;5050964;28;20467;-46
2022/01/06 09:57:18;;;;;;;13.10;12.70;;;17.80;95.90;;;;;;5051131;28;20456;-44
2022/01/06 09:59:45;;;;;;;14.47;13.97;;;17.80;95.70;;;;;;5051017;28;20444;-44
2022/01/06 10:02:16;;;;;;;13.23;12.83;;;17.90;95.40;;;;;;5050650;28;20484;-44
2022/01/06 10:04:47;;;;;;;15.13;14.73;;;17.90;95.30;;;;;;5053114;28;20474;-45
2022/01/06 10:07:16;;;;;;;13.70;13.30;;;17.90;95.00;;;;;;5054536;28;20444;-44
2022/01/06 10:09:43;;;;;;;13.43;13.03;;;17.80;95.00;;;;;;5054403;28;20447;-46
2022/01/06 10:12:13;;;;;;;14.77;14.37;;;17.90;94.90;;;;;;5054206;28;20906;-44
2022/01/06 10:14:43;;;;;;;13.40;12.90;;;17.90;94.70;;;;;;5054321;28;20463;-44
2022/01/06 10:17:11;;;;;;;14.47;13.97;;;17.90;94.60;;;;;;5054858;28;20444;-44
2022/01/06 10:19:40;;;;;;;15.23;14.67;;;17.90;94.30;;;;;;5054248;28;20451;-44
2022/01/06 10:22:12;;;;;;;13.80;13.37;;;17.90;94.40;;;;;;5053880;28;20484;-44
2022/01/06 10:24:39;;;;;;;13.60;13.20;;;17.80;94.30;;;;;;5054270;28;20440;-46
2022/01/06 10:27:08;;;;;;;13.73;13.33;;;17.90;94.20;;;;;;5054225;28;20471;-46
2022/01/06 10:29:36;;;;;;;13.93;13.47;;;17.80;94.20;;;;;;5054210;28;20777;-44
2022/01/06 10:32:04;;;;;;;14.20;13.73;;;17.80;94.30;;;;;;5054119;28;20464;-44
2022/01/06 10:34:32;;;;;;;14.90;14.40;;;17.80;94.30;;;;;;5054147;28;20448;-43
2022/01/06 10:37:00;;;;;;;14.30;13.80;;;17.80;94.20;;;;;;5053974;28;20444;-44
2022/01/06 10:39:40;;;;;;;13.67;13.17;;;17.90;93.90;;;;;;5053980;28;20948;-44
2022/01/06 10:42:07;;;;;;;15.43;15.00;;;17.90;93.70;;;;;;5053554;28;20864;-43
2022/01/06 10:44:34;;;;;;;13.67;13.17;;;17.90;93.30;;;;;;5053784;28;20451;-46
2022/01/06 10:47:00;;;;;;;14.33;13.83;;;17.90;93.10;;;;;;5053535;28;20949;-45
2022/01/06 10:49:31;;;;;;;13.93;13.53;;;18.00;92.90;;;;;;5053657;28;20814;-46
2022/01/06 10:51:59;;;;;;;13.63;13.23;;;18.00;92.70;;;;;;5053488;28;20464;-46
2022/01/06 10:54:25;;;;;;;13.87;13.47;;;18.00;92.30;;;;;;5053707;28;20917;-44
2022/01/06 10:57:02;;;;;;;14.40;14.00;;;18.10;92.20;;;;;;5053852;28;20452;-46
2022/01/06 10:59:32;;;;;;;15.30;14.80;;;18.10;91.90;;;;;;5053627;28;20444;-44
2022/01/06 11:02:00;;;;;;;14.27;13.87;;;18.10;91.60;;;;;;5053158;28;20851;-44
2022/01/06 11:04:28;;;;;;;14.20;13.80;;;18.10;91.40;;;;;;5053239;28;20953;-47
2022/01/06 11:06:55;;;;;;;14.10;13.70;;;18.10;91.40;;;;;;5053294;28;20502;-45
2022/01/06 11:09:22;;;;;;;13.80;13.30;;;18.10;91.20;;;;;;5053428;28;20456;-44
2022/01/06 11:14:34;;;;;;;13.33;12.87;;;18.30;91.20;;;;;;5072971;28;20512;-45
2022/01/06 11:17:01;;;;;;;13.37;12.97;;;18.80;91.00;;;;;;5072972;28;20447;-48
2022/01/06 11:19:29;;;;;;;14.27;13.43;;;18.90;91.40;;;;;;5072966;28;20447;-46
2022/01/06 11:22:01;;;;;;;13.70;13.20;;;19.00;92.70;;;;;;5059802;28;20483;-44
2022/01/06 11:24:28;;;;;;;14.17;13.67;;;19.10;93.60;;;;;;5052978;28;20539;-46
2022/01/06 11:27:00;;;;;;;13.17;12.77;;;19.30;93.60;;;;;;5053041;28;20444;-44
2022/01/06 11:29:28;;;;;;;14.47;13.87;;;19.40;92.30;;;;;;5052904;28;20918;-49
2022/01/06 11:31:57;;;;;;;15.03;14.63;;;19.40;91.70;;;;;;5052061;28;20840;-46
2022/01/06 11:34:24;;;;;;;14.57;13.97;;;19.40;91.40;;;;;;5052619;28;20454;-45
2022/01/06 11:36:54;;;;;;;15.00;14.30;;;19.40;91.00;;;;;;5052672;28;20552;-48
2022/01/06 11:39:24;;;;;;;13.23;12.63;;;19.50;90.40;;;;;;5052587;28;20444;-43
2022/01/06 11:41:52;;;;;;;13.40;13.00;;;19.60;89.50;;;;;;5054335;28;20488;-48
2022/01/06 11:44:21;;;;;;;13.40;13.00;;;19.60;88.30;;;;;;5054538;28;20462;-47
2022/01/06 11:46:50;;;;;;;14.40;13.80;;;19.60;87.00;;;;;;5052437;28;20448;-45
2022/01/06 11:49:34;;;;;;;14.93;14.40;;;19.50;86.30;;;;;;5052399;28;21114;-45
2022/01/06 11:52:05;;;;;;;15.83;15.13;;;19.50;86.10;;;;;;5053729;28;20471;-46
2022/01/06 11:54:32;;;;;;;16.10;15.50;;;19.50;85.60;;;;;;5053467;28;20448;-46
2022/01/06 11:56:59;;;;;;;14.40;14.00;;;19.40;85.30;;;;;;5053399;28;20467;-48
2022/01/06 11:59:30;;;;;;;15.80;15.30;;;19.40;85.20;;;;;;5053258;28;20444;-46
2022/01/06 12:01:57;;;;;;;15.43;14.73;;;19.40;84.60;;;;;;5052455;28;20480;-45
2022/01/06 12:04:26;;;;;;;14.83;14.33;;;19.30;84.20;;;;;;5053660;28;20821;-46
2022/01/06 12:07:04;;;;;;;14.20;13.80;;;19.30;84.20;;;;;;5053663;28;20448;-46
2022/01/06 12:09:31;;;;;;;15.13;14.60;;;19.20;84.20;;;;;;5051985;28;20455;-44
2022/01/06 12:12:03;;;;;;;13.77;13.27;;;19.20;83.80;;;;;;5051851;28;21004;-46
2022/01/06 12:14:30;;;;;;;13.90;13.30;;;19.30;83.30;;;;;;5053538;28;20444;-46
2022/01/06 12:17:06;;;;;;;15.10;14.50;;;19.30;82.70;;;;;;5052907;28;20448;-48
2022/01/06 12:19:34;;;;;;;14.00;13.50;;;19.10;82.50;;;;;;5051910;28;20441;-45
2022/01/06 12:22:01;;;;;;;14.77;14.17;;;19.00;83.00;;;;;;5051544;28;20488;-45
2022/01/06 12:24:28;;;;;;;14.30;13.90;;;18.90;83.40;;;;;;5051677;28;20952;-44
2022/01/06 12:26:54;;;;;;;14.00;13.60;;;18.90;83.70;;;;;;5051259;28;20798;-48
2022/01/06 12:29:25;;;;;;;14.27;13.67;;;18.80;84.10;;;;;;5051994;28;20820;-44
2022/01/06 12:31:52;;;;;;;14.27;13.77;;;18.80;84.20;;;;;;5051473;28;20499;-45
2022/01/06 12:34:20;;;;;;;13.43;13.03;;;18.70;84.30;;;;;;5052776;28;20455;-46
2022/01/06 12:36:48;;;;;;;14.43;13.93;;;18.70;84.40;;;;;;5053033;28;20491;-47
2022/01/06 12:39:17;;;;;;;14.00;13.60;;;18.80;84.40;;;;;;5051556;28;20791;-46